sensor_id;sensor_type;location;lat;lon;timestamp;temperature;humidity
1686;DHT22;840;47.980;7.830;2022-10-23T00:02:00;14.30;99.90
1686;DHT22;840;47.980;7.830;2022-10-23T00:04:29;14.40;99.90
1686;DHT22;840;47.980;7.830;2022-10-23T00:06:56;14.40;99.90
1686;DHT22;840;47.980;7.830;2022-10-23T00:09:23;14.40;99.90
1686;DHT22;840;47.980;7.830;2022-10-23T00:11:51;14.40;99.90
1686;DHT22;840;47.980;7.830;2022-10-23T00:14:20;14.40;99.90
1686;DHT22;840;47.980;7.830;2022-10-23T00:16:47;14.50;99.90
1686;DHT22;840;47.980;7.830;2022-10-23T00:19:14;14.50;99.90
1686;DHT22;840;47.980;7.830;2022-10-23T00:21:43;14.50;99.90
1686;DHT22;840;47.980;7.830;2022-10-23T00:24:10;14.50;99.90
1686;DHT22;840;47.980;7.830;2022-10-23T00:26:37;14.40;99.90
1686;DHT22;840;47.980;7.830;2022-10-23T00:29:05;14.40;99.90
1686;DHT22;840;47.980;7.830;2022-10-23T00:31:32;14.40;99.90
1686;DHT22;840;47.980;7.830;2022-10-23T00:33:59;14.50;99.90
1686;DHT22;840;47.980;7.830;2022-10-23T00:36:32;14.40;99.90
1686;DHT22;840;47.980;7.830;2022-10-23T00:39:01;14.40;99.90
1686;DHT22;840;47.980;7.830;2022-10-23T00:41:28;14.40;99.90
1686;DHT22;840;47.980;7.830;2022-10-23T00:44:01;14.40;99.90
1686;DHT22;840;47.980;7.830;2022-10-23T00:46:30;14.40;99.90
1686;DHT22;840;47.980;7.830;2022-10-23T00:48:57;14.30;99.90
1686;DHT22;840;47.980;7.830;2022-10-23T00:51:27;14.30;99.90
1686;DHT22;840;47.980;7.830;2022-10-23T00:53:57;14.30;99.90
1686;DHT22;840;47.980;7.830;2022-10-23T00:56:26;14.30;99.90
1686;DHT22;840;47.980;7.830;2022-10-23T00:58:53;14.30;99.90
1686;DHT22;840;47.980;7.830;2022-10-23T01:01:22;14.30;99.90
1686;DHT22;840;47.980;7.830;2022-10-23T01:03:49;14.30;99.90
1686;DHT22;840;47.980;7.830;2022-10-23T01:06:24;14.30;99.90
1686;DHT22;840;47.980;7.830;2022-10-23T01:08:56;14.30;99.90
1686;DHT22;840;47.980;7.830;2022-10-23T01:11:29;14.30;99.90
1686;DHT22;840;47.980;7.830;2022-10-23T01:14:02;14.30;99.90
1686;DHT22;840;47.980;7.830;2022-10-23T01:16:38;14.30;99.90
1686;DHT22;840;47.980;7.830;2022-10-23T01:19:15;14.30;99.90
1686;DHT22;840;47.980;7.830;2022-10-23T01:21:53;14.20;99.90
1686;DHT22;840;47.980;7.830;2022-10-23T01:24:35;14.30;99.90
1686;DHT22;840;47.980;7.830;2022-10-23T01:27:20;14.20;99.90
1686;DHT22;840;47.980;7.830;2022-10-23T01:29:51;14.20;99.90
1686;DHT22;840;47.980;7.830;2022-10-23T01:32:29;14.20;99.90
1686;DHT22;840;47.980;7.830;2022-10-23T01:35:01;14.10;99.90
1686;DHT22;840;47.980;7.830;2022-10-23T01:37:34;14.10;99.90
1686;DHT22;840;47.980;7.830;2022-10-23T01:40:04;14.10;99.90
1686;DHT22;840;47.980;7.830;2022-10-23T01:42:38;14.10;99.90
1686;DHT22;840;47.980;7.830;2022-10-23T01:45:09;14.00;99.90
1686;DHT22;840;47.980;7.830;2022-10-23T01:47:40;14.00;99.90
1686;DHT22;840;47.980;7.830;2022-10-23T01:50:08;14.00;99.90
1686;DHT22;840;47.980;7.830;2022-10-23T01:52:36;14.00;99.90
1686;DHT22;840;47.980;7.830;2022-10-23T01:55:04;14.00;99.90
1686;DHT22;840;47.980;7.830;2022-10-23T01:57:35;14.00;99.90
1686;DHT22;840;47.980;7.830;2022-10-23T02:00:05;14.00;99.90
1686;DHT22;840;47.980;7.830;2022-10-23T02:02:32;14.00;99.90
1686;DHT22;840;47.980;7.830;2022-10-23T02:05:03;14.10;99.90
1686;DHT22;840;47.980;7.830;2022-10-23T02:07:32;14.00;99.90
1686;DHT22;840;47.980;7.830;2022-10-23T02:10:00;14.10;99.90
1686;DHT22;840;47.980;7.830;2022-10-23T02:12:31;14.10;99.90
1686;DHT22;840;47.980;7.830;2022-10-23T02:15:08;14.00;99.90
1686;DHT22;840;47.980;7.830;2022-10-23T02:17:44;14.00;99.90
1686;DHT22;840;47.980;7.830;2022-10-23T02:20:19;14.00;99.90
1686;DHT22;840;47.980;7.830;2022-10-23T02:22:52;14.00;99.90
1686;DHT22;840;47.980;7.830;2022-10-23T02:25:27;13.90;99.90
1686;DHT22;840;47.980;7.830;2022-10-23T02:27:58;13.90;99.90
1686;DHT22;840;47.980;7.830;2022-10-23T02:30:29;13.90;99.90
1686;DHT22;840;47.980;7.830;2022-10-23T02:32:58;13.90;99.90
1686;DHT22;840;47.980;7.830;2022-10-23T02:35:25;13.90;99.90
1686;DHT22;840;47.980;7.830;2022-10-23T02:37:53;13.90;99.90
1686;DHT22;840;47.980;7.830;2022-10-23T02:40:21;13.90;99.90
1686;DHT22;840;47.980;7.830;2022-10-23T02:42:52;13.80;99.90
1686;DHT22;840;47.980;7.830;2022-10-23T02:45:30;13.80;99.90
1686;DHT22;840;47.980;7.830;2022-10-23T02:48:01;13.80;99.90
1686;DHT22;840;47.980;7.830;2022-10-23T02:50:36;13.70;99.90
1686;DHT22;840;47.980;7.830;2022-10-23T02:53:08;13.70;99.90
1686;DHT22;840;47.980;7.830;2022-10-23T02:55:45;13.70;99.90
1686;DHT22;840;47.980;7.830;2022-10-23T02:58:23;13.60;99.90
1686;DHT22;840;47.980;7.830;2022-10-23T03:00:55;13.60;99.90
1686;DHT22;840;47.980;7.830;2022-10-23T03:03:28;13.60;99.90
1686;DHT22;840;47.980;7.830;2022-10-23T03:05:57;13.60;99.90
1686;DHT22;840;47.980;7.830;2022-10-23T03:08:24;13.60;99.90
1686;DHT22;840;47.980;7.830;2022-10-23T03:10:51;13.60;99.90
1686;DHT22;840;47.980;7.830;2022-10-23T03:13:18;13.60;99.90
1686;DHT22;840;47.980;7.830;2022-10-23T03:15:44;13.60;99.90
1686;DHT22;840;47.980;7.830;2022-10-23T03:18:13;13.60;99.90
1686;DHT22;840;47.980;7.830;2022-10-23T03:20:40;13.60;99.90
1686;DHT22;840;47.980;7.830;2022-10-23T03:23:09;13.60;99.90
1686;DHT22;840;47.980;7.830;2022-10-23T03:25:37;13.60;99.90
1686;DHT22;840;47.980;7.830;2022-10-23T03:28:03;13.60;99.90
1686;DHT22;840;47.980;7.830;2022-10-23T03:30:30;13.50;99.90
1686;DHT22;840;47.980;7.830;2022-10-23T03:32:57;13.50;99.90
1686;DHT22;840;47.980;7.830;2022-10-23T03:35:25;13.50;99.90
1686;DHT22;840;47.980;7.830;2022-10-23T03:37:52;13.50;99.90
1686;DHT22;840;47.980;7.830;2022-10-23T03:40:19;13.50;99.90
1686;DHT22;840;47.980;7.830;2022-10-23T03:42:46;13.40;99.90
1686;DHT22;840;47.980;7.830;2022-10-23T03:45:13;13.40;99.90
1686;DHT22;840;47.980;7.830;2022-10-23T03:47:40;13.40;99.90
1686;DHT22;840;47.980;7.830;2022-10-23T03:50:08;13.40;99.90
1686;DHT22;840;47.980;7.830;2022-10-23T03:52:36;13.40;99.90
1686;DHT22;840;47.980;7.830;2022-10-23T03:55:04;13.40;99.90
1686;DHT22;840;47.980;7.830;2022-10-23T03:57:31;13.40;99.90
1686;DHT22;840;47.980;7.830;2022-10-23T03:59:57;13.40;99.90
1686;DHT22;840;47.980;7.830;2022-10-23T04:02:24;13.30;99.90
1686;DHT22;840;47.980;7.830;2022-10-23T04:04:51;13.30;99.90
1686;DHT22;840;47.980;7.830;2022-10-23T04:07:19;13.30;99.90
1686;DHT22;840;47.980;7.830;2022-10-23T04:09:47;13.30;99.90
1686;DHT22;840;47.980;7.830;2022-10-23T04:12:14;13.30;99.90
1686;DHT22;840;47.980;7.830;2022-10-23T04:14:41;13.30;99.90
1686;DHT22;840;47.980;7.830;2022-10-23T04:17:08;13.30;99.90
1686;DHT22;840;47.980;7.830;2022-10-23T04:19:35;13.30;99.90
1686;DHT22;840;47.980;7.830;2022-10-23T04:22:01;13.30;99.90
1686;DHT22;840;47.980;7.830;2022-10-23T04:24:28;13.20;99.90
1686;DHT22;840;47.980;7.830;2022-10-23T04:26:56;13.20;99.90
1686;DHT22;840;47.980;7.830;2022-10-23T04:29:23;13.20;99.90
1686;DHT22;840;47.980;7.830;2022-10-23T04:31:50;13.20;99.90
1686;DHT22;840;47.980;7.830;2022-10-23T04:34:17;13.30;99.90
1686;DHT22;840;47.980;7.830;2022-10-23T04:36:44;13.30;99.90
1686;DHT22;840;47.980;7.830;2022-10-23T04:39:10;13.30;99.90
1686;DHT22;840;47.980;7.830;2022-10-23T04:41:37;13.30;99.90
1686;DHT22;840;47.980;7.830;2022-10-23T04:44:06;13.30;99.90
1686;DHT22;840;47.980;7.830;2022-10-23T04:46:33;13.20;99.90
1686;DHT22;840;47.980;7.830;2022-10-23T04:48:59;13.20;99.90
1686;DHT22;840;47.980;7.830;2022-10-23T04:51:26;13.20;99.90
1686;DHT22;840;47.980;7.830;2022-10-23T04:53:53;13.20;99.90
1686;DHT22;840;47.980;7.830;2022-10-23T04:56:20;13.20;99.90
1686;DHT22;840;47.980;7.830;2022-10-23T04:58:47;13.20;99.90
1686;DHT22;840;47.980;7.830;2022-10-23T05:01:15;13.20;99.90
1686;DHT22;840;47.980;7.830;2022-10-23T05:03:42;13.20;99.90
1686;DHT22;840;47.980;7.830;2022-10-23T05:06:09;13.10;99.90
1686;DHT22;840;47.980;7.830;2022-10-23T05:08:36;13.10;99.90
1686;DHT22;840;47.980;7.830;2022-10-23T05:11:04;13.10;99.90
1686;DHT22;840;47.980;7.830;2022-10-23T05:13:31;13.00;99.90
1686;DHT22;840;47.980;7.830;2022-10-23T05:15:58;13.00;99.90
1686;DHT22;840;47.980;7.830;2022-10-23T05:18:31;13.00;99.90
1686;DHT22;840;47.980;7.830;2022-10-23T05:21:03;13.00;99.90
1686;DHT22;840;47.980;7.830;2022-10-23T05:23:32;12.90;99.90
1686;DHT22;840;47.980;7.830;2022-10-23T05:26:00;12.90;99.90
1686;DHT22;840;47.980;7.830;2022-10-23T05:28:28;12.80;99.90
1686;DHT22;840;47.980;7.830;2022-10-23T05:30:56;12.80;99.90
1686;DHT22;840;47.980;7.830;2022-10-23T05:33:24;12.80;99.90
1686;DHT22;840;47.980;7.830;2022-10-23T05:35:52;12.80;99.90
1686;DHT22;840;47.980;7.830;2022-10-23T05:38:20;12.80;99.90
1686;DHT22;840;47.980;7.830;2022-10-23T05:40:47;12.60;99.90
1686;DHT22;840;47.980;7.830;2022-10-23T05:43:13;12.60;99.90
1686;DHT22;840;47.980;7.830;2022-10-23T05:45:40;12.60;99.90
1686;DHT22;840;47.980;7.830;2022-10-23T05:48:07;12.50;99.90
1686;DHT22;840;47.980;7.830;2022-10-23T05:50:35;12.50;99.90
1686;DHT22;840;47.980;7.830;2022-10-23T05:53:03;12.40;99.90
1686;DHT22;840;47.980;7.830;2022-10-23T05:55:30;12.40;99.90
1686;DHT22;840;47.980;7.830;2022-10-23T05:57:57;12.50;99.90
1686;DHT22;840;47.980;7.830;2022-10-23T06:00:24;12.50;99.90
1686;DHT22;840;47.980;7.830;2022-10-23T06:02:51;12.60;99.90
1686;DHT22;840;47.980;7.830;2022-10-23T06:05:18;12.60;99.90
1686;DHT22;840;47.980;7.830;2022-10-23T06:07:48;12.70;99.90
1686;DHT22;840;47.980;7.830;2022-10-23T06:10:16;12.70;99.90
1686;DHT22;840;47.980;7.830;2022-10-23T06:12:43;12.70;99.90
1686;DHT22;840;47.980;7.830;2022-10-23T06:15:10;12.70;99.90
1686;DHT22;840;47.980;7.830;2022-10-23T06:17:37;12.70;99.90
1686;DHT22;840;47.980;7.830;2022-10-23T06:20:05;12.70;99.90
1686;DHT22;840;47.980;7.830;2022-10-23T06:22:32;12.70;99.90
1686;DHT22;840;47.980;7.830;2022-10-23T06:24:59;12.70;99.90
1686;DHT22;840;47.980;7.830;2022-10-23T06:27:27;12.70;99.90
1686;DHT22;840;47.980;7.830;2022-10-23T06:29:54;12.70;99.90
1686;DHT22;840;47.980;7.830;2022-10-23T06:32:21;12.80;99.90
1686;DHT22;840;47.980;7.830;2022-10-23T06:34:48;12.80;99.90
1686;DHT22;840;47.980;7.830;2022-10-23T06:37:14;12.80;99.90
1686;DHT22;840;47.980;7.830;2022-10-23T06:39:41;12.90;99.90
1686;DHT22;840;47.980;7.830;2022-10-23T06:42:09;12.90;99.90
1686;DHT22;840;47.980;7.830;2022-10-23T06:44:40;12.90;99.90
1686;DHT22;840;47.980;7.830;2022-10-23T06:47:07;13.00;99.90
1686;DHT22;840;47.980;7.830;2022-10-23T06:49:35;13.10;99.90
1686;DHT22;840;47.980;7.830;2022-10-23T06:52:02;13.10;99.90
1686;DHT22;840;47.980;7.830;2022-10-23T06:54:28;13.10;99.90
1686;DHT22;840;47.980;7.830;2022-10-23T06:56:55;13.00;99.90
1686;DHT22;840;47.980;7.830;2022-10-23T06:59:22;13.00;99.90
1686;DHT22;840;47.980;7.830;2022-10-23T07:01:51;13.10;99.90
1686;DHT22;840;47.980;7.830;2022-10-23T07:04:17;13.10;99.90
1686;DHT22;840;47.980;7.830;2022-10-23T07:06:44;13.10;99.90
1686;DHT22;840;47.980;7.830;2022-10-23T07:09:11;13.10;99.90
1686;DHT22;840;47.980;7.830;2022-10-23T07:11:38;13.10;99.90
1686;DHT22;840;47.980;7.830;2022-10-23T07:14:05;13.10;99.90
1686;DHT22;840;47.980;7.830;2022-10-23T07:16:32;13.20;99.90
1686;DHT22;840;47.980;7.830;2022-10-23T07:19:01;13.30;99.90
1686;DHT22;840;47.980;7.830;2022-10-23T07:21:29;13.30;99.90
1686;DHT22;840;47.980;7.830;2022-10-23T07:23:57;13.40;99.90
1686;DHT22;840;47.980;7.830;2022-10-23T07:26:24;13.40;99.90
1686;DHT22;840;47.980;7.830;2022-10-23T07:28:52;13.50;99.90
1686;DHT22;840;47.980;7.830;2022-10-23T07:31:20;13.60;99.90
1686;DHT22;840;47.980;7.830;2022-10-23T07:33:47;13.60;99.90
1686;DHT22;840;47.980;7.830;2022-10-23T07:36:15;13.70;99.90
1686;DHT22;840;47.980;7.830;2022-10-23T07:38:42;13.70;99.90
1686;DHT22;840;47.980;7.830;2022-10-23T07:41:09;13.80;99.90
1686;DHT22;840;47.980;7.830;2022-10-23T07:43:36;13.90;99.90
1686;DHT22;840;47.980;7.830;2022-10-23T07:46:03;14.00;99.90
1686;DHT22;840;47.980;7.830;2022-10-23T07:48:30;14.10;99.90
1686;DHT22;840;47.980;7.830;2022-10-23T07:50:57;14.20;99.90
1686;DHT22;840;47.980;7.830;2022-10-23T07:53:27;14.20;99.90
1686;DHT22;840;47.980;7.830;2022-10-23T07:55:56;14.30;99.90
1686;DHT22;840;47.980;7.830;2022-10-23T07:58:25;14.40;99.90
1686;DHT22;840;47.980;7.830;2022-10-23T08:00:55;14.50;99.90
1686;DHT22;840;47.980;7.830;2022-10-23T08:03:23;14.60;99.90
1686;DHT22;840;47.980;7.830;2022-10-23T08:05:51;14.70;99.90
1686;DHT22;840;47.980;7.830;2022-10-23T08:08:18;14.80;99.90
1686;DHT22;840;47.980;7.830;2022-10-23T08:10:46;14.80;99.90
1686;DHT22;840;47.980;7.830;2022-10-23T08:13:14;14.80;99.90
1686;DHT22;840;47.980;7.830;2022-10-23T08:15:42;14.90;99.90
1686;DHT22;840;47.980;7.830;2022-10-23T08:18:09;15.00;99.90
1686;DHT22;840;47.980;7.830;2022-10-23T08:20:39;15.00;99.90
1686;DHT22;840;47.980;7.830;2022-10-23T08:23:07;15.10;99.90
1686;DHT22;840;47.980;7.830;2022-10-23T08:25:34;15.20;99.90
1686;DHT22;840;47.980;7.830;2022-10-23T08:28:06;15.20;99.90
1686;DHT22;840;47.980;7.830;2022-10-23T08:30:33;15.30;99.90
1686;DHT22;840;47.980;7.830;2022-10-23T08:33:02;15.40;99.90
1686;DHT22;840;47.980;7.830;2022-10-23T08:35:29;15.50;99.90
1686;DHT22;840;47.980;7.830;2022-10-23T08:37:56;15.50;99.90
1686;DHT22;840;47.980;7.830;2022-10-23T08:40:23;15.60;99.90
1686;DHT22;840;47.980;7.830;2022-10-23T08:42:55;15.70;99.90
1686;DHT22;840;47.980;7.830;2022-10-23T08:45:30;15.70;99.90
1686;DHT22;840;47.980;7.830;2022-10-23T08:48:03;15.80;99.90
1686;DHT22;840;47.980;7.830;2022-10-23T08:50:35;15.90;99.90
1686;DHT22;840;47.980;7.830;2022-10-23T08:53:08;16.00;99.90
1686;DHT22;840;47.980;7.830;2022-10-23T08:55:39;16.00;99.90
1686;DHT22;840;47.980;7.830;2022-10-23T08:58:13;16.10;99.90
1686;DHT22;840;47.980;7.830;2022-10-23T09:00:43;16.10;99.90
1686;DHT22;840;47.980;7.830;2022-10-23T09:03:11;16.20;99.90
1686;DHT22;840;47.980;7.830;2022-10-23T09:05:53;16.30;99.90
1686;DHT22;840;47.980;7.830;2022-10-23T09:08:32;16.30;99.90
1686;DHT22;840;47.980;7.830;2022-10-23T09:11:03;16.40;99.90
1686;DHT22;840;47.980;7.830;2022-10-23T09:13:44;16.40;99.90
1686;DHT22;840;47.980;7.830;2022-10-23T09:16:22;16.50;99.90
1686;DHT22;840;47.980;7.830;2022-10-23T09:18:51;16.60;99.90
1686;DHT22;840;47.980;7.830;2022-10-23T09:21:18;16.60;99.90
1686;DHT22;840;47.980;7.830;2022-10-23T09:23:46;16.60;99.90
1686;DHT22;840;47.980;7.830;2022-10-23T09:26:15;16.70;99.90
1686;DHT22;840;47.980;7.830;2022-10-23T09:28:46;16.80;99.90
1686;DHT22;840;47.980;7.830;2022-10-23T09:31:16;16.90;99.90
1686;DHT22;840;47.980;7.830;2022-10-23T09:33:53;16.90;99.90
1686;DHT22;840;47.980;7.830;2022-10-23T09:36:21;17.00;99.90
1686;DHT22;840;47.980;7.830;2022-10-23T09:38:51;17.00;99.90
1686;DHT22;840;47.980;7.830;2022-10-23T09:41:21;17.10;99.90
1686;DHT22;840;47.980;7.830;2022-10-23T09:43:59;17.20;99.90
1686;DHT22;840;47.980;7.830;2022-10-23T09:46:37;17.30;99.90
1686;DHT22;840;47.980;7.830;2022-10-23T09:49:04;17.40;99.90
1686;DHT22;840;47.980;7.830;2022-10-23T09:51:32;17.50;99.90
1686;DHT22;840;47.980;7.830;2022-10-23T09:53:59;17.60;99.90
1686;DHT22;840;47.980;7.830;2022-10-23T09:56:29;17.70;99.90
1686;DHT22;840;47.980;7.830;2022-10-23T09:58:58;17.80;99.90
1686;DHT22;840;47.980;7.830;2022-10-23T10:01:27;17.80;99.90
1686;DHT22;840;47.980;7.830;2022-10-23T10:03:59;17.90;99.90
1686;DHT22;840;47.980;7.830;2022-10-23T10:06:28;17.90;99.90
1686;DHT22;840;47.980;7.830;2022-10-23T10:08:56;18.00;99.90
1686;DHT22;840;47.980;7.830;2022-10-23T10:11:28;18.10;99.90
1686;DHT22;840;47.980;7.830;2022-10-23T10:14:12;18.10;99.90
1686;DHT22;840;47.980;7.830;2022-10-23T10:16:49;18.20;99.90
1686;DHT22;840;47.980;7.830;2022-10-23T10:19:29;18.20;99.90
1686;DHT22;840;47.980;7.830;2022-10-23T10:22:04;18.20;99.90
1686;DHT22;840;47.980;7.830;2022-10-23T10:24:43;18.30;99.90
1686;DHT22;840;47.980;7.830;2022-10-23T10:27:19;18.40;99.90
1686;DHT22;840;47.980;7.830;2022-10-23T10:30:01;18.50;99.90
1686;DHT22;840;47.980;7.830;2022-10-23T10:32:35;18.50;99.90
1686;DHT22;840;47.980;7.830;2022-10-23T10:35:18;18.60;99.90
1686;DHT22;840;47.980;7.830;2022-10-23T10:37:58;18.70;99.90
1686;DHT22;840;47.980;7.830;2022-10-23T10:40:31;18.80;99.90
1686;DHT22;840;47.980;7.830;2022-10-23T10:43:11;18.80;99.90
1686;DHT22;840;47.980;7.830;2022-10-23T10:45:44;18.80;99.90
1686;DHT22;840;47.980;7.830;2022-10-23T10:48:36;18.80;99.90
1686;DHT22;840;47.980;7.830;2022-10-23T10:51:09;18.90;99.90
1686;DHT22;840;47.980;7.830;2022-10-23T10:53:47;19.00;99.90
1686;DHT22;840;47.980;7.830;2022-10-23T10:56:18;19.10;99.90
1686;DHT22;840;47.980;7.830;2022-10-23T10:58:49;19.10;99.90
1686;DHT22;840;47.980;7.830;2022-10-23T11:01:21;19.20;99.90
1686;DHT22;840;47.980;7.830;2022-10-23T11:03:54;19.30;99.90
1686;DHT22;840;47.980;7.830;2022-10-23T11:06:27;19.30;99.90
1686;DHT22;840;47.980;7.830;2022-10-23T11:08:56;19.40;99.90
1686;DHT22;840;47.980;7.830;2022-10-23T11:11:30;19.40;99.90
1686;DHT22;840;47.980;7.830;2022-10-23T11:13:58;19.50;99.90
1686;DHT22;840;47.980;7.830;2022-10-23T11:16:33;19.60;99.90
1686;DHT22;840;47.980;7.830;2022-10-23T11:19:04;19.70;99.90
1686;DHT22;840;47.980;7.830;2022-10-23T11:21:39;19.80;99.90
1686;DHT22;840;47.980;7.830;2022-10-23T11:27:17;20.00;99.90
1686;DHT22;840;47.980;7.830;2022-10-23T11:30:11;20.20;99.90
1686;DHT22;840;47.980;7.830;2022-10-23T11:33:10;20.20;99.90
1686;DHT22;840;47.980;7.830;2022-10-23T11:35:47;20.30;99.90
1686;DHT22;840;47.980;7.830;2022-10-23T11:38:22;20.30;99.90
1686;DHT22;840;47.980;7.830;2022-10-23T11:40:52;20.40;99.90
1686;DHT22;840;47.980;7.830;2022-10-23T11:43:31;20.40;99.90
1686;DHT22;840;47.980;7.830;2022-10-23T11:46:11;20.40;99.90
1686;DHT22;840;47.980;7.830;2022-10-23T11:48:48;20.40;99.90
1686;DHT22;840;47.980;7.830;2022-10-23T11:51:30;20.50;99.90
1686;DHT22;840;47.980;7.830;2022-10-23T11:54:22;20.50;99.90
1686;DHT22;840;47.980;7.830;2022-10-23T11:57:01;20.60;99.90
1686;DHT22;840;47.980;7.830;2022-10-23T11:59:34;20.50;99.90
1686;DHT22;840;47.980;7.830;2022-10-23T12:02:20;20.50;99.90
1686;DHT22;840;47.980;7.830;2022-10-23T12:04:51;20.50;99.90
1686;DHT22;840;47.980;7.830;2022-10-23T12:07:22;20.60;99.90
1686;DHT22;840;47.980;7.830;2022-10-23T12:09:56;20.60;99.90
1686;DHT22;840;47.980;7.830;2022-10-23T12:12:30;20.60;99.90
1686;DHT22;840;47.980;7.830;2022-10-23T12:15:20;20.60;99.90
1686;DHT22;840;47.980;7.830;2022-10-23T12:17:48;20.60;99.90
1686;DHT22;840;47.980;7.830;2022-10-23T12:20:34;20.60;99.90
1686;DHT22;840;47.980;7.830;2022-10-23T12:23:15;20.60;99.90
1686;DHT22;840;47.980;7.830;2022-10-23T12:26:01;20.60;99.90
1686;DHT22;840;47.980;7.830;2022-10-23T12:28:35;20.60;99.90
1686;DHT22;840;47.980;7.830;2022-10-23T12:31:19;20.60;99.90
1686;DHT22;840;47.980;7.830;2022-10-23T12:33:55;20.60;99.90
1686;DHT22;840;47.980;7.830;2022-10-23T12:39:25;20.70;99.90
1686;DHT22;840;47.980;7.830;2022-10-23T12:41:54;20.80;99.90
1686;DHT22;840;47.980;7.830;2022-10-23T12:44:22;20.80;99.90
1686;DHT22;840;47.980;7.830;2022-10-23T12:46:53;20.90;99.90
1686;DHT22;840;47.980;7.830;2022-10-23T12:49:21;20.90;99.90
1686;DHT22;840;47.980;7.830;2022-10-23T12:51:54;21.00;99.90
1686;DHT22;840;47.980;7.830;2022-10-23T12:54:21;21.10;99.90
1686;DHT22;840;47.980;7.830;2022-10-23T12:56:48;21.20;99.90
1686;DHT22;840;47.980;7.830;2022-10-23T12:59:22;21.30;99.90
1686;DHT22;840;47.980;7.830;2022-10-23T13:01:51;21.40;99.90
1686;DHT22;840;47.980;7.830;2022-10-23T13:04:24;21.50;99.90
1686;DHT22;840;47.980;7.830;2022-10-23T13:06:53;21.70;99.90
1686;DHT22;840;47.980;7.830;2022-10-23T13:09:23;21.80;99.90
1686;DHT22;840;47.980;7.830;2022-10-23T13:11:53;21.80;99.90
1686;DHT22;840;47.980;7.830;2022-10-23T13:14:35;21.90;99.90
1686;DHT22;840;47.980;7.830;2022-10-23T13:17:05;21.90;99.90
1686;DHT22;840;47.980;7.830;2022-10-23T13:19:32;22.00;99.90
1686;DHT22;840;47.980;7.830;2022-10-23T13:21:59;22.10;99.90
1686;DHT22;840;47.980;7.830;2022-10-23T13:24:28;22.20;99.90
1686;DHT22;840;47.980;7.830;2022-10-23T13:26:56;22.20;99.90
1686;DHT22;840;47.980;7.830;2022-10-23T13:29:26;22.30;99.90
1686;DHT22;840;47.980;7.830;2022-10-23T13:31:55;22.30;99.90
1686;DHT22;840;47.980;7.830;2022-10-23T13:34:26;22.30;99.90
1686;DHT22;840;47.980;7.830;2022-10-23T13:36:58;22.30;99.90
1686;DHT22;840;47.980;7.830;2022-10-23T13:39:27;22.40;99.90
1686;DHT22;840;47.980;7.830;2022-10-23T13:41:56;22.50;99.90
1686;DHT22;840;47.980;7.830;2022-10-23T13:44:25;22.50;99.90
1686;DHT22;840;47.980;7.830;2022-10-23T13:46:52;22.50;99.90
1686;DHT22;840;47.980;7.830;2022-10-23T13:49:20;22.40;99.90
1686;DHT22;840;47.980;7.830;2022-10-23T13:51:49;22.40;99.90
1686;DHT22;840;47.980;7.830;2022-10-23T13:54:19;22.50;99.90
1686;DHT22;840;47.980;7.830;2022-10-23T13:56:47;22.60;99.90
1686;DHT22;840;47.980;7.830;2022-10-23T13:59:14;22.80;99.90
1686;DHT22;840;47.980;7.830;2022-10-23T14:01:43;22.80;99.90
1686;DHT22;840;47.980;7.830;2022-10-23T14:04:11;22.80;99.90
1686;DHT22;840;47.980;7.830;2022-10-23T14:06:39;22.80;99.90
1686;DHT22;840;47.980;7.830;2022-10-23T14:09:10;22.90;99.90
1686;DHT22;840;47.980;7.830;2022-10-23T14:11:37;23.00;99.90
1686;DHT22;840;47.980;7.830;2022-10-23T14:14:04;23.10;99.90
1686;DHT22;840;47.980;7.830;2022-10-23T14:16:31;23.10;99.90
1686;DHT22;840;47.980;7.830;2022-10-23T14:18:58;23.20;99.90
1686;DHT22;840;47.980;7.830;2022-10-23T14:21:25;23.40;99.90
1686;DHT22;840;47.980;7.830;2022-10-23T14:23:53;23.60;99.90
1686;DHT22;840;47.980;7.830;2022-10-23T14:26:22;23.70;99.90
1686;DHT22;840;47.980;7.830;2022-10-23T14:28:52;23.70;99.90
1686;DHT22;840;47.980;7.830;2022-10-23T14:31:19;23.60;99.90
1686;DHT22;840;47.980;7.830;2022-10-23T14:33:51;23.60;99.90
1686;DHT22;840;47.980;7.830;2022-10-23T14:36:18;23.60;99.90
1686;DHT22;840;47.980;7.830;2022-10-23T14:38:44;23.50;99.90
1686;DHT22;840;47.980;7.830;2022-10-23T14:41:14;23.40;99.90
1686;DHT22;840;47.980;7.830;2022-10-23T14:43:41;23.40;99.90
1686;DHT22;840;47.980;7.830;2022-10-23T14:46:10;23.40;99.90
1686;DHT22;840;47.980;7.830;2022-10-23T14:48:38;23.40;99.90
1686;DHT22;840;47.980;7.830;2022-10-23T14:51:06;23.40;99.90
1686;DHT22;840;47.980;7.830;2022-10-23T14:53:33;23.40;99.90
1686;DHT22;840;47.980;7.830;2022-10-23T14:56:01;23.50;99.90
1686;DHT22;840;47.980;7.830;2022-10-23T14:58:29;23.60;99.90
1686;DHT22;840;47.980;7.830;2022-10-23T15:00:57;23.60;99.90
1686;DHT22;840;47.980;7.830;2022-10-23T15:03:38;23.70;99.90
1686;DHT22;840;47.980;7.830;2022-10-23T15:06:06;23.60;99.90
1686;DHT22;840;47.980;7.830;2022-10-23T15:08:33;23.60;99.90
1686;DHT22;840;47.980;7.830;2022-10-23T15:11:01;23.50;99.90
1686;DHT22;840;47.980;7.830;2022-10-23T15:13:29;23.30;99.90
1686;DHT22;840;47.980;7.830;2022-10-23T15:16:04;23.30;99.90
1686;DHT22;840;47.980;7.830;2022-10-23T15:18:32;23.10;99.90
1686;DHT22;840;47.980;7.830;2022-10-23T15:21:01;23.00;99.90
1686;DHT22;840;47.980;7.830;2022-10-23T15:23:29;22.90;99.90
1686;DHT22;840;47.980;7.830;2022-10-23T15:25:57;22.80;99.90
1686;DHT22;840;47.980;7.830;2022-10-23T15:28:24;22.70;99.90
1686;DHT22;840;47.980;7.830;2022-10-23T15:30:53;22.60;99.90
1686;DHT22;840;47.980;7.830;2022-10-23T15:33:20;22.50;99.90
1686;DHT22;840;47.980;7.830;2022-10-23T15:35:47;22.40;99.90
1686;DHT22;840;47.980;7.830;2022-10-23T15:38:15;22.40;99.90
1686;DHT22;840;47.980;7.830;2022-10-23T15:40:43;22.20;99.90
1686;DHT22;840;47.980;7.830;2022-10-23T15:43:10;22.20;99.90
1686;DHT22;840;47.980;7.830;2022-10-23T15:45:37;22.00;99.90
1686;DHT22;840;47.980;7.830;2022-10-23T15:48:06;21.90;99.90
1686;DHT22;840;47.980;7.830;2022-10-23T15:50:35;21.80;99.90
1686;DHT22;840;47.980;7.830;2022-10-23T15:53:02;21.70;99.90
1686;DHT22;840;47.980;7.830;2022-10-23T15:55:29;21.70;99.90
1686;DHT22;840;47.980;7.830;2022-10-23T15:57:55;21.60;99.90
1686;DHT22;840;47.980;7.830;2022-10-23T16:00:26;21.50;99.90
1686;DHT22;840;47.980;7.830;2022-10-23T16:02:53;21.40;99.90
1686;DHT22;840;47.980;7.830;2022-10-23T16:05:21;21.40;99.90
1686;DHT22;840;47.980;7.830;2022-10-23T16:07:48;21.30;99.90
1686;DHT22;840;47.980;7.830;2022-10-23T16:10:17;21.20;99.90
1686;DHT22;840;47.980;7.830;2022-10-23T16:12:44;21.20;99.90
1686;DHT22;840;47.980;7.830;2022-10-23T16:15:11;21.10;99.90
1686;DHT22;840;47.980;7.830;2022-10-23T16:17:39;21.10;99.90
1686;DHT22;840;47.980;7.830;2022-10-23T16:20:06;21.00;99.90
1686;DHT22;840;47.980;7.830;2022-10-23T16:22:35;20.90;99.90
1686;DHT22;840;47.980;7.830;2022-10-23T16:25:02;20.90;99.90
1686;DHT22;840;47.980;7.830;2022-10-23T16:27:29;20.80;99.90
1686;DHT22;840;47.980;7.830;2022-10-23T16:29:55;20.80;99.90
1686;DHT22;840;47.980;7.830;2022-10-23T16:32:25;20.70;99.90
1686;DHT22;840;47.980;7.830;2022-10-23T16:34:52;20.70;99.90
1686;DHT22;840;47.980;7.830;2022-10-23T16:37:19;20.70;99.90
1686;DHT22;840;47.980;7.830;2022-10-23T16:39:47;20.60;99.90
1686;DHT22;840;47.980;7.830;2022-10-23T16:42:14;20.60;99.90